sensor_id;sensor_type;location;lat;lon;timestamp;noise_LAeq;noise_LA_min;noise_LA_max;noise_LA01;noise_LA95
64545;Laerm;50936;51.660;5.616;2023-12-22T00:02:38;38.90;35.36;43.63;;
64545;Laerm;50936;51.660;5.616;2023-12-22T00:05:25;37.90;32.35;41.30;;
64545;Laerm;50936;51.660;5.616;2023-12-22T00:08:13;37.46;31.68;40.80;;
64545;Laerm;50936;51.660;5.616;2023-12-22T00:11:00;37.64;31.68;43.19;;
64545;Laerm;50936;51.660;5.616;2023-12-22T00:13:47;37.68;30.89;42.16;;
64545;Laerm;50936;51.660;5.616;2023-12-22T00:16:37;37.16;29.92;40.79;;
64545;Laerm;50936;51.660;5.616;2023-12-22T00:19:24;37.30;30.89;41.22;;
64545;Laerm;50936;51.660;5.616;2023-12-22T00:22:12;37.08;29.57;40.89;;
64545;Laerm;50936;51.660;5.616;2023-12-22T00:24:59;36.85;30.89;41.30;;
64545;Laerm;50936;51.660;5.616;2023-12-22T00:27:46;37.07;30.89;41.06;;
64545;Laerm;50936;51.660;5.616;2023-12-22T00:30:34;37.15;30.89;41.22;;
64545;Laerm;50936;51.660;5.616;2023-12-22T00:33:21;37.10;30.89;40.62;;
64545;Laerm;50936;51.660;5.616;2023-12-22T00:38:55;37.10;31.33;42.09;;
64545;Laerm;50936;51.660;5.616;2023-12-22T00:41:42;37.02;30.89;41.14;;
64545;Laerm;50936;51.660;5.616;2023-12-22T00:44:29;36.97;31.68;40.80;;
64545;Laerm;50936;51.660;5.616;2023-12-22T00:47:17;37.07;30.89;42.41;;
64545;Laerm;50936;51.660;5.616;2023-12-22T00:50:05;37.81;31.68;43.14;;
64545;Laerm;50936;51.660;5.616;2023-12-22T00:52:52;38.65;33.44;43.63;;
64545;Laerm;50936;51.660;5.616;2023-12-22T00:55:40;37.52;30.89;40.98;;
64545;Laerm;50936;51.660;5.616;2023-12-22T00:58:27;37.92;31.68;42.98;;
64545;Laerm;50936;51.660;5.616;2023-12-22T01:01:14;38.39;31.68;43.29;;
64545;Laerm;50936;51.660;5.616;2023-12-22T01:04:01;38.30;33.44;43.24;;
64545;Laerm;50936;51.660;5.616;2023-12-22T01:06:49;38.33;34.31;41.38;;
64545;Laerm;50936;51.660;5.616;2023-12-22T01:09:37;38.39;34.69;40.80;;
64545;Laerm;50936;51.660;5.616;2023-12-22T01:12:24;38.42;33.90;40.80;;
64545;Laerm;50936;51.660;5.616;2023-12-22T01:15:11;38.46;35.04;41.06;;
64545;Laerm;50936;51.660;5.616;2023-12-22T01:17:58;37.55;32.35;56.32;;
64545;Laerm;50936;51.660;5.616;2023-12-22T01:20:46;37.06;30.89;40.71;;
64545;Laerm;50936;51.660;5.616;2023-12-22T01:23:33;38.30;29.92;43.94;;
64545;Laerm;50936;51.660;5.616;2023-12-22T01:26:20;38.22;32.93;41.22;;
64545;Laerm;50936;51.660;5.616;2023-12-22T01:29:07;38.31;34.69;41.14;;
64545;Laerm;50936;51.660;5.616;2023-12-22T01:31:54;38.48;33.44;40.98;;
64545;Laerm;50936;51.660;5.616;2023-12-22T01:34:42;38.70;35.04;41.14;;
64545;Laerm;50936;51.660;5.616;2023-12-22T01:37:30;38.60;33.44;41.75;;
64545;Laerm;50936;51.660;5.616;2023-12-22T01:40:17;37.71;32.35;43.72;;
64545;Laerm;50936;51.660;5.616;2023-12-22T01:43:04;37.23;31.68;41.14;;
64545;Laerm;50936;51.660;5.616;2023-12-22T01:45:56;37.16;31.68;41.11;;
64545;Laerm;50936;51.660;5.616;2023-12-22T01:48:44;37.26;30.54;40.98;;
64545;Laerm;50936;51.660;5.616;2023-12-22T01:51:34;37.38;31.68;41.22;;
64545;Laerm;50936;51.660;5.616;2023-12-22T01:54:24;37.25;32.35;41.06;;
64545;Laerm;50936;51.660;5.616;2023-12-22T01:57:15;37.35;31.68;41.89;;
64545;Laerm;50936;51.660;5.616;2023-12-22T02:00:05;37.37;30.89;41.06;;
64545;Laerm;50936;51.660;5.616;2023-12-22T02:02:57;37.05;30.89;41.38;;
64545;Laerm;50936;51.660;5.616;2023-12-22T02:05:45;37.18;29.92;40.80;;
64545;Laerm;50936;51.660;5.616;2023-12-22T02:08:33;37.01;29.92;42.16;;
64545;Laerm;50936;51.660;5.616;2023-12-22T02:11:21;36.97;29.92;40.98;;
64545;Laerm;50936;51.660;5.616;2023-12-22T02:14:09;37.02;30.89;40.62;;
64545;Laerm;50936;51.660;5.616;2023-12-22T02:17:11;36.89;30.89;40.80;;
64545;Laerm;50936;51.660;5.616;2023-12-22T02:20:01;37.45;29.92;43.34;;
64545;Laerm;50936;51.660;5.616;2023-12-22T02:22:53;38.20;33.90;41.06;;
64545;Laerm;50936;51.660;5.616;2023-12-22T02:25:40;38.31;32.93;41.38;;
64545;Laerm;50936;51.660;5.616;2023-12-22T02:28:27;38.34;34.69;41.38;;
64545;Laerm;50936;51.660;5.616;2023-12-22T02:31:48;38.41;33.44;41.06;;
64545;Laerm;50936;51.660;5.616;2023-12-22T02:34:41;38.53;35.04;42.53;;
64545;Laerm;50936;51.660;5.616;2023-12-22T02:37:30;38.17;32.93;41.14;;
64545;Laerm;50936;51.660;5.616;2023-12-22T02:40:20;37.30;31.68;44.39;;
64545;Laerm;50936;51.660;5.616;2023-12-22T02:43:09;36.90;30.89;40.89;;
64545;Laerm;50936;51.660;5.616;2023-12-22T02:45:56;37.22;31.68;42.36;;
64545;Laerm;50936;51.660;5.616;2023-12-22T02:48:43;37.36;30.89;54.02;;
64545;Laerm;50936;51.660;5.616;2023-12-22T02:51:31;37.12;30.89;41.11;;
64545;Laerm;50936;51.660;5.616;2023-12-22T02:54:18;37.24;29.92;42.53;;
64545;Laerm;50936;51.660;5.616;2023-12-22T02:57:08;37.02;29.92;41.22;;
64545;Laerm;50936;51.660;5.616;2023-12-22T02:59:56;37.32;31.68;41.61;;
64545;Laerm;50936;51.660;5.616;2023-12-22T03:02:43;37.16;31.68;43.29;;
64545;Laerm;50936;51.660;5.616;2023-12-22T03:05:31;37.23;30.89;40.71;;
64545;Laerm;50936;51.660;5.616;2023-12-22T03:08:18;37.08;31.68;41.06;;
64545;Laerm;50936;51.660;5.616;2023-12-22T03:11:05;36.97;30.89;40.71;;
64545;Laerm;50936;51.660;5.616;2023-12-22T03:13:52;37.03;26.91;40.71;;
64545;Laerm;50936;51.660;5.616;2023-12-22T03:16:40;37.01;29.92;41.06;;
64545;Laerm;50936;51.660;5.616;2023-12-22T03:19:29;36.92;30.89;41.22;;
64545;Laerm;50936;51.660;5.616;2023-12-22T03:22:17;37.08;30.89;40.71;;
64545;Laerm;50936;51.660;5.616;2023-12-22T03:25:04;37.80;31.68;41.82;;
64545;Laerm;50936;51.660;5.616;2023-12-22T03:27:52;38.41;35.04;41.30;;
64545;Laerm;50936;51.660;5.616;2023-12-22T03:30:39;38.42;34.31;41.26;;
64545;Laerm;50936;51.660;5.616;2023-12-22T03:33:26;38.43;33.90;41.38;;
64545;Laerm;50936;51.660;5.616;2023-12-22T03:36:13;38.44;34.31;41.30;;
64545;Laerm;50936;51.660;5.616;2023-12-22T03:39:01;38.48;35.36;41.14;;
64545;Laerm;50936;51.660;5.616;2023-12-22T03:41:49;38.49;33.90;40.98;;
64545;Laerm;50936;51.660;5.616;2023-12-22T03:44:36;38.42;33.44;40.89;;
64545;Laerm;50936;51.660;5.616;2023-12-22T03:47:23;38.58;35.36;41.46;;
64545;Laerm;50936;51.660;5.616;2023-12-22T03:50:11;38.67;35.66;42.98;;
64545;Laerm;50936;51.660;5.616;2023-12-22T03:52:58;38.71;36.20;41.46;;
64545;Laerm;50936;51.660;5.616;2023-12-22T03:55:45;38.75;36.45;41.06;;
64545;Laerm;50936;51.660;5.616;2023-12-22T03:58:32;38.72;36.45;41.14;;
64545;Laerm;50936;51.660;5.616;2023-12-22T04:01:20;38.83;36.45;50.70;;
64545;Laerm;50936;51.660;5.616;2023-12-22T04:04:07;38.78;36.10;45.97;;
64545;Laerm;50936;51.660;5.616;2023-12-22T04:06:54;38.86;35.94;41.46;;
64545;Laerm;50936;51.660;5.616;2023-12-22T04:09:41;38.76;35.86;41.14;;
64545;Laerm;50936;51.660;5.616;2023-12-22T04:12:29;38.84;35.66;42.03;;
64545;Laerm;50936;51.660;5.616;2023-12-22T04:15:16;38.80;35.36;41.46;;
64545;Laerm;50936;51.660;5.616;2023-12-22T04:18:03;37.79;30.89;42.06;;
64545;Laerm;50936;51.660;5.616;2023-12-22T04:20:51;37.49;32.93;41.82;;
64545;Laerm;50936;51.660;5.616;2023-12-22T04:23:40;37.75;30.89;41.06;;
64545;Laerm;50936;51.660;5.616;2023-12-22T04:26:28;37.69;32.93;41.38;;
64545;Laerm;50936;51.660;5.616;2023-12-22T04:29:15;37.59;31.68;41.53;;
64545;Laerm;50936;51.660;5.616;2023-12-22T04:32:03;37.63;30.89;41.53;;
64545;Laerm;50936;51.660;5.616;2023-12-22T04:34:50;37.80;32.35;41.89;;
64545;Laerm;50936;51.660;5.616;2023-12-22T04:37:38;37.72;32.35;41.82;;
64545;Laerm;50936;51.660;5.616;2023-12-22T04:40:25;37.66;31.68;40.98;;
64545;Laerm;50936;51.660;5.616;2023-12-22T04:43:12;37.63;32.35;42.65;;
64545;Laerm;50936;51.660;5.616;2023-12-22T04:45:59;37.74;30.89;41.14;;
64545;Laerm;50936;51.660;5.616;2023-12-22T04:48:46;37.47;30.89;41.06;;
64545;Laerm;50936;51.660;5.616;2023-12-22T04:51:34;37.34;30.89;40.89;;
64545;Laerm;50936;51.660;5.616;2023-12-22T04:54:21;37.21;30.89;40.80;;
64545;Laerm;50936;51.660;5.616;2023-12-22T04:57:08;37.48;31.68;43.54;;
64545;Laerm;50936;51.660;5.616;2023-12-22T04:59:55;37.67;31.68;54.83;;
64545;Laerm;50936;51.660;5.616;2023-12-22T05:02:42;38.93;34.31;55.27;;
64545;Laerm;50936;51.660;5.616;2023-12-22T05:05:30;41.45;35.04;60.90;;
64545;Laerm;50936;51.660;5.616;2023-12-22T05:08:17;38.46;34.31;45.69;;
64545;Laerm;50936;51.660;5.616;2023-12-22T05:11:04;38.46;34.31;41.14;;
64545;Laerm;50936;51.660;5.616;2023-12-22T05:13:52;38.50;34.31;44.62;;
64545;Laerm;50936;51.660;5.616;2023-12-22T05:16:39;38.65;33.90;45.89;;
64545;Laerm;50936;51.660;5.616;2023-12-22T05:19:26;38.72;34.69;42.65;;
64545;Laerm;50936;51.660;5.616;2023-12-22T05:22:14;38.99;35.66;43.94;;
64545;Laerm;50936;51.660;5.616;2023-12-22T05:25:01;38.95;35.66;54.41;;
64545;Laerm;50936;51.660;5.616;2023-12-22T05:27:48;39.24;35.36;45.69;;
64545;Laerm;50936;51.660;5.616;2023-12-22T05:30:36;38.87;35.66;41.06;;
64545;Laerm;50936;51.660;5.616;2023-12-22T05:33:23;38.83;36.20;45.48;;
64545;Laerm;50936;51.660;5.616;2023-12-22T05:36:10;39.97;33.90;58.50;;
64545;Laerm;50936;51.660;5.616;2023-12-22T05:38:57;47.31;31.68;73.65;;
64545;Laerm;50936;51.660;5.616;2023-12-22T05:41:44;46.28;33.90;73.62;;
64545;Laerm;50936;51.660;5.616;2023-12-22T05:44:33;43.23;32.35;69.35;;
64545;Laerm;50936;51.660;5.616;2023-12-22T05:47:21;42.87;35.04;61.49;;
64545;Laerm;50936;51.660;5.616;2023-12-22T05:50:08;47.46;34.69;76.11;;
64545;Laerm;50936;51.660;5.616;2023-12-22T05:52:57;38.50;33.44;48.20;;
64545;Laerm;50936;51.660;5.616;2023-12-22T05:55:44;38.49;31.68;43.94;;
64545;Laerm;50936;51.660;5.616;2023-12-22T05:58:31;38.27;30.89;48.46;;
64545;Laerm;50936;51.660;5.616;2023-12-22T06:01:19;37.86;32.93;43.81;;
64545;Laerm;50936;51.660;5.616;2023-12-22T06:04:06;38.08;31.68;43.14;;
64545;Laerm;50936;51.660;5.616;2023-12-22T06:06:53;38.59;32.93;43.19;;
64545;Laerm;50936;51.660;5.616;2023-12-22T06:09:40;39.38;32.93;46.87;;
64545;Laerm;50936;51.660;5.616;2023-12-22T06:12:28;38.76;33.44;45.36;;
64545;Laerm;50936;51.660;5.616;2023-12-22T06:15:15;38.28;32.93;42.22;;
64545;Laerm;50936;51.660;5.616;2023-12-22T06:18:02;40.42;33.44;65.26;;
64545;Laerm;50936;51.660;5.616;2023-12-22T06:20:50;45.47;33.44;70.48;;
64545;Laerm;50936;51.660;5.616;2023-12-22T06:23:37;41.38;33.44;64.91;;
64545;Laerm;50936;51.660;5.616;2023-12-22T06:26:24;45.68;34.31;70.50;;
64545;Laerm;50936;51.660;5.616;2023-12-22T06:29:11;44.58;35.01;70.08;;
64545;Laerm;50936;51.660;5.616;2023-12-22T06:31:59;44.67;35.36;72.40;;
64545;Laerm;50936;51.660;5.616;2023-12-22T06:34:48;39.19;33.90;53.02;;
64545;Laerm;50936;51.660;5.616;2023-12-22T06:37:35;39.24;35.04;55.14;;
64545;Laerm;50936;51.660;5.616;2023-12-22T06:40:22;39.77;34.31;59.05;;
64545;Laerm;50936;51.660;5.616;2023-12-22T06:43:09;39.17;34.69;48.00;;
64545;Laerm;50936;51.660;5.616;2023-12-22T06:45:56;42.11;35.31;71.67;;
64545;Laerm;50936;51.660;5.616;2023-12-22T06:48:45;42.56;35.36;63.10;;
64545;Laerm;50936;51.660;5.616;2023-12-22T06:51:33;55.75;36.45;73.64;;
64545;Laerm;50936;51.660;5.616;2023-12-22T06:54:22;43.71;33.44;61.36;;
64545;Laerm;50936;51.660;5.616;2023-12-22T06:57:10;52.58;36.45;73.52;;
64545;Laerm;50936;51.660;5.616;2023-12-22T06:59:57;42.50;34.31;64.10;;
64545;Laerm;50936;51.660;5.616;2023-12-22T07:02:45;41.32;35.04;58.58;;
64545;Laerm;50936;51.660;5.616;2023-12-22T07:05:33;44.12;37.88;60.68;;
64545;Laerm;50936;51.660;5.616;2023-12-22T07:08:20;44.47;34.31;67.48;;
64545;Laerm;50936;51.660;5.616;2023-12-22T07:11:07;45.47;32.35;71.75;;
64545;Laerm;50936;51.660;5.616;2023-12-22T07:13:54;52.60;34.69;77.40;;
64545;Laerm;50936;51.660;5.616;2023-12-22T07:16:44;52.44;36.20;73.25;;
64545;Laerm;50936;51.660;5.616;2023-12-22T07:19:32;56.73;37.52;84.65;;
64545;Laerm;50936;51.660;5.616;2023-12-22T07:22:19;54.59;34.31;70.63;;
64545;Laerm;50936;51.660;5.616;2023-12-22T07:25:07;54.55;36.20;75.61;;
64545;Laerm;50936;51.660;5.616;2023-12-22T07:27:55;55.87;35.04;73.91;;
64545;Laerm;50936;51.660;5.616;2023-12-22T07:30:42;54.20;35.36;70.08;;
64545;Laerm;50936;51.660;5.616;2023-12-22T07:33:29;52.28;35.04;68.79;;
64545;Laerm;50936;51.660;5.616;2023-12-22T07:36:17;56.99;36.20;75.45;;
64545;Laerm;50936;51.660;5.616;2023-12-22T07:39:09;45.70;35.36;71.36;;
64545;Laerm;50936;51.660;5.616;2023-12-22T07:41:57;48.45;36.34;78.48;;
64545;Laerm;50936;51.660;5.616;2023-12-22T07:44:44;39.98;34.69;62.26;;
64545;Laerm;50936;51.660;5.616;2023-12-22T07:47:33;39.43;35.66;52.75;;
64545;Laerm;50936;51.660;5.616;2023-12-22T07:50:20;39.39;35.36;46.20;;
64545;Laerm;50936;51.660;5.616;2023-12-22T07:53:08;39.70;35.04;45.83;;
64545;Laerm;50936;51.660;5.616;2023-12-22T07:55:56;39.56;35.36;44.97;;
64545;Laerm;50936;51.660;5.616;2023-12-22T07:58:43;39.34;35.36;43.54;;
64545;Laerm;50936;51.660;5.616;2023-12-22T08:01:30;39.80;35.94;61.81;;
64545;Laerm;50936;51.660;5.616;2023-12-22T08:04:17;40.61;35.36;64.54;;
64545;Laerm;50936;51.660;5.616;2023-12-22T08:07:05;48.72;35.36;77.46;;
64545;Laerm;50936;51.660;5.616;2023-12-22T08:09:52;46.30;36.20;71.25;;
64545;Laerm;50936;51.660;5.616;2023-12-22T08:12:39;46.26;36.69;66.36;;
64545;Laerm;50936;51.660;5.616;2023-12-22T08:15:26;49.03;35.94;76.52;;
64545;Laerm;50936;51.660;5.616;2023-12-22T08:18:22;53.43;35.04;79.99;;
64545;Laerm;50936;51.660;5.616;2023-12-22T08:21:10;59.43;36.45;87.43;;
64545;Laerm;50936;51.660;5.616;2023-12-22T08:24:11;59.27;35.04;81.94;;
64545;Laerm;50936;51.660;5.616;2023-12-22T08:27:08;56.02;36.91;79.44;;
64545;Laerm;50936;51.660;5.616;2023-12-22T08:29:56;52.88;36.45;73.99;;
64545;Laerm;50936;51.660;5.616;2023-12-22T08:32:43;59.32;35.66;79.25;;
64545;Laerm;50936;51.660;5.616;2023-12-22T08:35:30;50.17;32.35;72.05;;
64545;Laerm;50936;51.660;5.616;2023-12-22T08:38:17;59.56;35.36;81.02;;
64545;Laerm;50936;51.660;5.616;2023-12-22T08:41:08;47.47;35.66;74.30;;
64545;Laerm;50936;51.660;5.616;2023-12-22T08:43:56;44.36;34.69;68.24;;
64545;Laerm;50936;51.660;5.616;2023-12-22T08:46:43;42.73;35.04;64.11;;
64545;Laerm;50936;51.660;5.616;2023-12-22T08:49:30;45.36;35.36;73.81;;
64545;Laerm;50936;51.660;5.616;2023-12-22T08:52:18;43.81;35.31;62.55;;
64545;Laerm;50936;51.660;5.616;2023-12-22T08:55:05;54.32;36.45;77.64;;
64545;Laerm;50936;51.660;5.616;2023-12-22T08:57:53;51.62;36.69;71.15;;
64545;Laerm;50936;51.660;5.616;2023-12-22T09:00:48;55.83;35.86;74.14;;
64545;Laerm;50936;51.660;5.616;2023-12-22T09:03:36;53.42;36.45;69.69;;
64545;Laerm;50936;51.660;5.616;2023-12-22T09:06:24;56.60;36.20;74.64;;
64545;Laerm;50936;51.660;5.616;2023-12-22T09:09:13;54.29;37.32;69.98;;
64545;Laerm;50936;51.660;5.616;2023-12-22T09:12:00;55.09;37.12;72.75;;
64545;Laerm;50936;51.660;5.616;2023-12-22T09:14:49;53.67;36.91;75.23;;
64545;Laerm;50936;51.660;5.616;2023-12-22T09:17:36;49.55;35.04;68.71;;
64545;Laerm;50936;51.660;5.616;2023-12-22T09:20:23;54.25;36.69;69.98;;
64545;Laerm;50936;51.660;5.616;2023-12-22T09:23:11;58.05;35.94;75.65;;
64545;Laerm;50936;51.660;5.616;2023-12-22T09:25:58;60.54;36.91;75.93;;
64545;Laerm;50936;51.660;5.616;2023-12-22T09:28:46;59.11;36.69;73.42;;
64545;Laerm;50936;51.660;5.616;2023-12-22T09:31:33;58.72;36.98;73.67;;
64545;Laerm;50936;51.660;5.616;2023-12-22T09:34:21;59.47;38.21;72.17;;
64545;Laerm;50936;51.660;5.616;2023-12-22T09:37:08;59.36;37.70;77.59;;
64545;Laerm;50936;51.660;5.616;2023-12-22T09:39:55;56.72;36.69;72.37;;
64545;Laerm;50936;51.660;5.616;2023-12-22T09:42:43;57.99;37.32;74.64;;
64545;Laerm;50936;51.660;5.616;2023-12-22T09:45:33;59.85;38.05;74.59;;
64545;Laerm;50936;51.660;5.616;2023-12-22T09:48:21;58.49;38.52;73.71;;
64545;Laerm;50936;51.660;5.616;2023-12-22T09:51:17;58.13;38.21;74.02;;
64545;Laerm;50936;51.660;5.616;2023-12-22T09:54:04;57.37;38.21;70.67;;
64545;Laerm;50936;51.660;5.616;2023-12-22T09:56:54;56.50;38.37;73.85;;
64545;Laerm;50936;51.660;5.616;2023-12-22T09:59:41;56.91;38.37;71.27;;
64545;Laerm;50936;51.660;5.616;2023-12-22T10:02:33;59.64;38.52;77.42;;
64545;Laerm;50936;51.660;5.616;2023-12-22T10:05:22;58.45;37.32;73.94;;
64545;Laerm;50936;51.660;5.616;2023-12-22T10:08:10;58.80;37.52;72.46;;
64545;Laerm;50936;51.660;5.616;2023-12-22T10:10:59;58.89;37.70;80.80;;
64545;Laerm;50936;51.660;5.616;2023-12-22T10:13:50;60.11;36.69;77.39;;
64545;Laerm;50936;51.660;5.616;2023-12-22T10:16:40;59.70;37.35;77.73;;
64545;Laerm;50936;51.660;5.616;2023-12-22T10:19:27;65.38;37.12;88.13;;
64545;Laerm;50936;51.660;5.616;2023-12-22T10:22:14;58.85;37.32;77.87;;
64545;Laerm;50936;51.660;5.616;2023-12-22T10:25:02;60.39;39.58;86.43;;
64545;Laerm;50936;51.660;5.616;2023-12-22T10:27:51;60.47;37.88;82.61;;
64545;Laerm;50936;51.660;5.616;2023-12-22T10:30:40;56.84;37.88;73.99;;
64545;Laerm;50936;51.660;5.616;2023-12-22T10:33:29;57.82;37.32;72.38;;
64545;Laerm;50936;51.660;5.616;2023-12-22T10:36:17;59.58;37.52;75.03;;
64545;Laerm;50936;51.660;5.616;2023-12-22T10:39:04;59.48;37.12;74.10;;
64545;Laerm;50936;51.660;5.616;2023-12-22T10:41:52;57.40;36.45;72.83;;
64545;Laerm;50936;51.660;5.616;2023-12-22T10:44:40;60.58;37.52;73.87;;
64545;Laerm;50936;51.660;5.616;2023-12-22T10:47:28;60.85;38.21;77.05;;
64545;Laerm;50936;51.660;5.616;2023-12-22T10:50:19;60.26;37.12;76.20;;
64545;Laerm;50936;51.660;5.616;2023-12-22T10:53:06;59.02;37.70;72.24;;
64545;Laerm;50936;51.660;5.616;2023-12-22T10:55:54;58.50;37.32;76.00;;
64545;Laerm;50936;51.660;5.616;2023-12-22T10:58:42;59.72;37.70;74.94;;
64545;Laerm;50936;51.660;5.616;2023-12-22T11:01:30;59.93;38.21;78.15;;
64545;Laerm;50936;51.660;5.616;2023-12-22T11:04:20;54.79;37.70;71.97;;
64545;Laerm;50936;51.660;5.616;2023-12-22T11:07:10;54.92;37.32;73.01;;
64545;Laerm;50936;51.660;5.616;2023-12-22T11:10:03;58.87;36.91;77.44;;
64545;Laerm;50936;51.660;5.616;2023-12-22T11:12:52;57.28;37.88;72.33;;
64545;Laerm;50936;51.660;5.616;2023-12-22T11:15:42;59.35;37.70;76.31;;
64545;Laerm;50936;51.660;5.616;2023-12-22T11:18:30;56.89;36.69;73.35;;
64545;Laerm;50936;51.660;5.616;2023-12-22T11:21:18;56.33;37.52;76.35;;
64545;Laerm;50936;51.660;5.616;2023-12-22T11:24:12;55.98;36.69;80.67;;
64545;Laerm;50936;51.660;5.616;2023-12-22T11:27:02;55.52;38.52;79.38;;
64545;Laerm;50936;51.660;5.616;2023-12-22T11:29:50;49.72;38.37;73.65;;
64545;Laerm;50936;51.660;5.616;2023-12-22T11:32:39;51.73;37.88;80.70;;
64545;Laerm;50936;51.660;5.616;2023-12-22T11:35:28;48.65;38.21;71.21;;
64545;Laerm;50936;51.660;5.616;2023-12-22T11:38:20;47.76;40.89;73.04;;
64545;Laerm;50936;51.660;5.616;2023-12-22T11:41:16;48.78;40.33;73.92;;
64545;Laerm;50936;51.660;5.616;2023-12-22T11:44:06;48.84;40.33;73.25;;
64545;Laerm;50936;51.660;5.616;2023-12-22T11:47:08;54.70;40.23;81.59;;
64545;Laerm;50936;51.660;5.616;2023-12-22T11:49:55;57.79;40.89;75.57;;
64545;Laerm;50936;51.660;5.616;2023-12-22T11:52:43;56.10;40.13;78.72;;
64545;Laerm;50936;51.660;5.616;2023-12-22T11:56:02;53.01;40.13;71.99;;
64545;Laerm;50936;51.660;5.616;2023-12-22T11:58:52;51.58;40.13;70.48;;
64545;Laerm;50936;51.660;5.616;2023-12-22T12:01:41;54.50;40.62;72.36;;
64545;Laerm;50936;51.660;5.616;2023-12-22T12:04:29;54.87;38.81;75.01;;
64545;Laerm;50936;51.660;5.616;2023-12-22T12:07:40;57.40;37.52;84.64;;
64545;Laerm;50936;51.660;5.616;2023-12-22T12:13:24;55.32;36.45;69.32;;
64545;Laerm;50936;51.660;5.616;2023-12-22T12:16:19;55.54;37.52;68.86;;
64545;Laerm;50936;51.660;5.616;2023-12-22T12:19:10;53.69;38.21;67.92;;
64545;Laerm;50936;51.660;5.616;2023-12-22T12:22:00;54.31;37.52;69.75;;
64545;Laerm;50936;51.660;5.616;2023-12-22T12:24:48;54.10;38.95;66.55;;
64545;Laerm;50936;51.660;5.616;2023-12-22T12:27:36;58.17;39.92;72.92;;
64545;Laerm;50936;51.660;5.616;2023-12-22T12:30:25;59.90;39.08;81.23;;
64545;Laerm;50936;51.660;5.616;2023-12-22T12:33:15;56.91;38.37;74.56;;
64545;Laerm;50936;51.660;5.616;2023-12-22T12:36:03;57.19;39.21;78.17;;
64545;Laerm;50936;51.660;5.616;2023-12-22T12:38:59;59.17;38.05;82.27;;
64545;Laerm;50936;51.660;5.616;2023-12-22T12:41:53;55.99;37.88;72.90;;
64545;Laerm;50936;51.660;5.616;2023-12-22T12:44:42;56.38;37.88;74.83;;
64545;Laerm;50936;51.660;5.616;2023-12-22T12:47:31;52.04;36.98;69.76;;
64545;Laerm;50936;51.660;5.616;2023-12-22T12:50:22;53.38;36.91;66.77;;
64545;Laerm;50936;51.660;5.616;2023-12-22T12:53:10;53.34;35.94;65.27;;
64545;Laerm;50936;51.660;5.616;2023-12-22T12:55:58;54.23;37.52;68.16;;
64545;Laerm;50936;51.660;5.616;2023-12-22T12:58:45;53.13;36.20;64.37;;
64545;Laerm;50936;51.660;5.616;2023-12-22T13:01:38;54.12;38.05;73.68;;
64545;Laerm;50936;51.660;5.616;2023-12-22T13:04:37;45.89;36.20;78.24;;
64545;Laerm;50936;51.660;5.616;2023-12-22T13:07:27;44.69;35.94;68.90;;
64545;Laerm;50936;51.660;5.616;2023-12-22T13:10:22;47.36;35.86;74.39;;
64545;Laerm;50936;51.660;5.616;2023-12-22T13:13:09;56.48;36.45;78.74;;
64545;Laerm;50936;51.660;5.616;2023-12-22T13:15:56;54.08;35.94;82.60;;
64545;Laerm;50936;51.660;5.616;2023-12-22T13:18:44;59.32;36.45;81.05;;
64545;Laerm;50936;51.660;5.616;2023-12-22T13:21:31;52.37;37.12;72.91;;
64545;Laerm;50936;51.660;5.616;2023-12-22T13:24:19;49.43;36.45;72.52;;
64545;Laerm;50936;51.660;5.616;2023-12-22T13:27:07;48.33;35.66;72.78;;
64545;Laerm;50936;51.660;5.616;2023-12-22T13:29:55;47.15;36.45;70.60;;
64545;Laerm;50936;51.660;5.616;2023-12-22T13:32:42;60.20;36.45;89.27;;
64545;Laerm;50936;51.660;5.616;2023-12-22T13:35:30;39.52;35.36;42.93;;
64545;Laerm;50936;51.660;5.616;2023-12-22T13:38:18;46.70;36.20;73.09;;
64545;Laerm;50936;51.660;5.616;2023-12-22T13:41:07;61.89;36.69;93.26;;
64545;Laerm;50936;51.660;5.616;2023-12-22T13:43:55;56.11;35.94;78.96;;
64545;Laerm;50936;51.660;5.616;2023-12-22T13:46:43;59.56;35.36;85.31;;
64545;Laerm;50936;51.660;5.616;2023-12-22T13:49:33;57.21;36.20;78.23;;
64545;Laerm;50936;51.660;5.616;2023-12-22T13:52:31;63.34;36.69;82.31;;
64545;Laerm;50936;51.660;5.616;2023-12-22T13:55:25;62.72;36.45;81.73;;
64545;Laerm;50936;51.660;5.616;2023-12-22T13:58:13;59.21;36.69;79.19;;
64545;Laerm;50936;51.660;5.616;2023-12-22T14:01:16;55.81;35.94;80.61;;
64545;Laerm;50936;51.660;5.616;2023-12-22T14:04:03;52.20;35.94;79.41;;
64545;Laerm;50936;51.660;5.616;2023-12-22T14:06:51;55.59;36.45;77.53;;
64545;Laerm;50936;51.660;5.616;2023-12-22T14:09:38;51.25;36.45;76.10;;
64545;Laerm;50936;51.660;5.616;2023-12-22T14:12:26;65.32;37.52;83.67;;
64545;Laerm;50936;51.660;5.616;2023-12-22T14:15:18;67.77;37.12;84.77;;
64545;Laerm;50936;51.660;5.616;2023-12-22T14:18:06;66.19;36.91;85.12;;
64545;Laerm;50936;51.660;5.616;2023-12-22T14:20:53;60.32;38.21;79.63;;
64545;Laerm;50936;51.660;5.616;2023-12-22T14:23:40;58.52;36.91;72.94;;
64545;Laerm;50936;51.660;5.616;2023-12-22T14:26:27;59.96;37.70;74.05;;
64545;Laerm;50936;51.660;5.616;2023-12-22T14:29:14;60.62;36.91;76.01;;
64545;Laerm;50936;51.660;5.616;2023-12-22T14:32:02;59.29;36.69;75.49;;
64545;Laerm;50936;51.660;5.616;2023-12-22T14:34:52;59.13;37.32;73.98;;
64545;Laerm;50936;51.660;5.616;2023-12-22T14:37:39;59.65;37.70;73.62;;
64545;Laerm;50936;51.660;5.616;2023-12-22T14:40:26;57.68;38.05;75.30;;
64545;Laerm;50936;51.660;5.616;2023-12-22T14:43:14;58.78;36.69;74.99;;
64545;Laerm;50936;51.660;5.616;2023-12-22T14:46:01;59.91;37.12;73.45;;
64545;Laerm;50936;51.660;5.616;2023-12-22T14:48:48;55.92;37.52;72.26;;
64545;Laerm;50936;51.660;5.616;2023-12-22T14:51:39;57.69;37.12;74.03;;
64545;Laerm;50936;51.660;5.616;2023-12-22T14:54:26;57.97;37.70;72.25;;
64545;Laerm;50936;51.660;5.616;2023-12-22T14:57:14;60.36;37.88;74.97;;
64545;Laerm;50936;51.660;5.616;2023-12-22T15:00:02;57.48;37.70;74.06;;
64545;Laerm;50936;51.660;5.616;2023-12-22T15:02:49;58.82;38.95;74.23;;
64545;Laerm;50936;51.660;5.616;2023-12-22T15:05:37;59.70;38.18;78.26;;
64545;Laerm;50936;51.660;5.616;2023-12-22T15:08:25;59.35;38.21;73.08;;
64545;Laerm;50936;51.660;5.616;2023-12-22T15:11:12;61.10;37.32;74.60;;
64545;Laerm;50936;51.660;5.616;2023-12-22T15:14:00;59.66;37.52;73.23;;
64545;Laerm;50936;51.660;5.616;2023-12-22T15:16:48;61.55;37.52;77.42;;
64545;Laerm;50936;51.660;5.616;2023-12-22T15:19:42;63.98;37.88;81.83;;
64545;Laerm;50936;51.660;5.616;2023-12-22T15:22:29;60.68;36.45;75.22;;
64545;Laerm;50936;51.660;5.616;2023-12-22T15:25:17;60.97;37.12;75.42;;
64545;Laerm;50936;51.660;5.616;2023-12-22T15:28:05;61.29;36.45;74.08;;
64545;Laerm;50936;51.660;5.616;2023-12-22T15:30:52;61.53;37.12;74.80;;
64545;Laerm;50936;51.660;5.616;2023-12-22T15:33:39;60.63;37.32;74.10;;
64545;Laerm;50936;51.660;5.616;2023-12-22T15:36:27;61.35;36.69;74.55;;
64545;Laerm;50936;51.660;5.616;2023-12-22T15:39:15;60.81;36.69;73.57;;
64545;Laerm;50936;51.660;5.616;2023-12-22T15:42:02;60.80;37.52;77.19;;
64545;Laerm;50936;51.660;5.616;2023-12-22T15:44:50;60.98;36.91;76.96;;
64545;Laerm;50936;51.660;5.616;2023-12-22T15:47:37;57.74;37.32;74.76;;
64545;Laerm;50936;51.660;5.616;2023-12-22T15:50:24;57.91;37.70;74.91;;